sensor_id;sensor_type;location;lat;lon;timestamp;P1;durP1;ratioP1;P2;durP2;ratioP2
12519;SDS011;6325;49.540;8.364;2023-09-12T00:01:06;9.20;;;7.67;;
12519;SDS011;6325;49.540;8.364;2023-09-12T00:03:34;9.38;;;8.38;;
12519;SDS011;6325;49.540;8.364;2023-09-12T00:06:02;10.90;;;8.80;;
12519;SDS011;6325;49.540;8.364;2023-09-12T00:08:29;9.30;;;8.30;;
12519;SDS011;6325;49.540;8.364;2023-09-12T00:11:00;8.00;;;7.20;;
12519;SDS011;6325;49.540;8.364;2023-09-12T00:13:27;8.65;;;7.75;;
12519;SDS011;6325;49.540;8.364;2023-09-12T00:15:54;8.13;;;7.32;;
12519;SDS011;6325;49.540;8.364;2023-09-12T00:18:21;9.30;;;8.27;;
12519;SDS011;6325;49.540;8.364;2023-09-12T00:20:50;8.73;;;7.82;;
12519;SDS011;6325;49.540;8.364;2023-09-12T00:23:17;8.98;;;8.07;;
12519;SDS011;6325;49.540;8.364;2023-09-12T00:25:45;9.25;;;8.20;;
12519;SDS011;6325;49.540;8.364;2023-09-12T00:28:12;8.68;;;7.78;;
12519;SDS011;6325;49.540;8.364;2023-09-12T00:30:39;8.70;;;7.80;;
12519;SDS011;6325;49.540;8.364;2023-09-12T00:33:06;8.82;;;7.93;;
12519;SDS011;6325;49.540;8.364;2023-09-12T00:35:33;8.80;;;7.67;;
12519;SDS011;6325;49.540;8.364;2023-09-12T00:38:02;8.63;;;7.70;;
12519;SDS011;6325;49.540;8.364;2023-09-12T00:40:29;7.47;;;6.72;;
12519;SDS011;6325;49.540;8.364;2023-09-12T00:42:56;7.00;;;6.30;;
12519;SDS011;6325;49.540;8.364;2023-09-12T00:45:23;6.53;;;5.93;;
12519;SDS011;6325;49.540;8.364;2023-09-12T00:47:50;6.70;;;6.10;;
12519;SDS011;6325;49.540;8.364;2023-09-12T00:50:18;6.33;;;5.83;;
12519;SDS011;6325;49.540;8.364;2023-09-12T00:52:45;7.03;;;6.40;;
12519;SDS011;6325;49.540;8.364;2023-09-12T00:55:14;6.85;;;6.25;;
12519;SDS011;6325;49.540;8.364;2023-09-12T00:57:41;7.10;;;6.40;;
12519;SDS011;6325;49.540;8.364;2023-09-12T01:00:11;6.97;;;6.37;;
12519;SDS011;6325;49.540;8.364;2023-09-12T01:02:39;6.82;;;6.25;;
12519;SDS011;6325;49.540;8.364;2023-09-12T01:05:06;6.90;;;6.30;;
12519;SDS011;6325;49.540;8.364;2023-09-12T01:07:34;6.68;;;6.07;;
12519;SDS011;6325;49.540;8.364;2023-09-12T01:10:01;7.20;;;6.50;;
12519;SDS011;6325;49.540;8.364;2023-09-12T01:12:30;6.82;;;6.22;;
12519;SDS011;6325;49.540;8.364;2023-09-12T01:14:57;7.10;;;6.50;;
12519;SDS011;6325;49.540;8.364;2023-09-12T01:17:24;7.00;;;6.40;;
12519;SDS011;6325;49.540;8.364;2023-09-12T01:19:52;7.55;;;6.72;;
12519;SDS011;6325;49.540;8.364;2023-09-12T01:22:26;7.70;;;7.00;;
12519;SDS011;6325;49.540;8.364;2023-09-12T01:25:08;7.65;;;6.97;;
12519;SDS011;6325;49.540;8.364;2023-09-12T01:27:37;8.05;;;7.35;;
12519;SDS011;6325;49.540;8.364;2023-09-12T01:30:06;7.82;;;7.20;;
12519;SDS011;6325;49.540;8.364;2023-09-12T01:32:34;8.15;;;7.32;;
12519;SDS011;6325;49.540;8.364;2023-09-12T01:35:02;8.60;;;7.80;;
12519;SDS011;6325;49.540;8.364;2023-09-12T01:37:29;8.30;;;7.50;;
12519;SDS011;6325;49.540;8.364;2023-09-12T01:39:56;8.18;;;7.47;;
12519;SDS011;6325;49.540;8.364;2023-09-12T01:42:24;8.15;;;7.45;;
12519;SDS011;6325;49.540;8.364;2023-09-12T01:44:54;8.27;;;7.57;;
12519;SDS011;6325;49.540;8.364;2023-09-12T01:47:22;8.43;;;7.63;;
12519;SDS011;6325;49.540;8.364;2023-09-12T01:49:51;8.45;;;7.75;;
12519;SDS011;6325;49.540;8.364;2023-09-12T01:52:19;8.13;;;7.38;;
12519;SDS011;6325;49.540;8.364;2023-09-12T01:54:46;8.55;;;7.80;;
12519;SDS011;6325;49.540;8.364;2023-09-12T01:57:14;8.45;;;7.75;;
12519;SDS011;6325;49.540;8.364;2023-09-12T01:59:41;8.20;;;7.50;;
12519;SDS011;6325;49.540;8.364;2023-09-12T02:02:10;8.18;;;7.38;;
12519;SDS011;6325;49.540;8.364;2023-09-12T02:04:37;8.60;;;7.72;;
12519;SDS011;6325;49.540;8.364;2023-09-12T02:07:04;8.60;;;7.80;;
12519;SDS011;6325;49.540;8.364;2023-09-12T02:09:31;8.30;;;7.50;;
12519;SDS011;6325;49.540;8.364;2023-09-12T02:11:58;8.43;;;7.65;;
12519;SDS011;6325;49.540;8.364;2023-09-12T02:14:25;8.00;;;7.30;;
12519;SDS011;6325;49.540;8.364;2023-09-12T02:16:52;8.13;;;7.43;;
12519;SDS011;6325;49.540;8.364;2023-09-12T02:19:21;7.95;;;7.25;;
12519;SDS011;6325;49.540;8.364;2023-09-12T02:21:48;8.55;;;7.85;;
12519;SDS011;6325;49.540;8.364;2023-09-12T02:24:15;8.52;;;7.82;;
12519;SDS011;6325;49.540;8.364;2023-09-12T02:26:43;7.57;;;6.97;;
12519;SDS011;6325;49.540;8.364;2023-09-12T02:29:10;8.18;;;7.47;;
12519;SDS011;6325;49.540;8.364;2023-09-12T02:31:37;8.52;;;7.40;;
12519;SDS011;6325;49.540;8.364;2023-09-12T02:34:05;8.15;;;7.45;;
12519;SDS011;6325;49.540;8.364;2023-09-12T02:36:33;8.40;;;7.60;;
12519;SDS011;6325;49.540;8.364;2023-09-12T02:39:00;8.63;;;7.82;;
12519;SDS011;6325;49.540;8.364;2023-09-12T02:41:28;8.93;;;8.13;;
12519;SDS011;6325;49.540;8.364;2023-09-12T02:43:55;8.40;;;7.60;;
12519;SDS011;6325;49.540;8.364;2023-09-12T02:46:22;8.73;;;8.02;;
12519;SDS011;6325;49.540;8.364;2023-09-12T02:48:50;8.57;;;7.80;;
12519;SDS011;6325;49.540;8.364;2023-09-12T02:51:17;8.38;;;7.68;;
12519;SDS011;6325;49.540;8.364;2023-09-12T02:53:45;8.40;;;7.70;;
12519;SDS011;6325;49.540;8.364;2023-09-12T02:56:12;8.20;;;7.50;;
12519;SDS011;6325;49.540;8.364;2023-09-12T02:58:39;8.90;;;8.00;;
12519;SDS011;6325;49.540;8.364;2023-09-12T03:01:06;8.20;;;7.40;;
12519;SDS011;6325;49.540;8.364;2023-09-12T03:03:34;8.60;;;7.80;;
12519;SDS011;6325;49.540;8.364;2023-09-12T03:06:01;7.83;;;7.23;;
12519;SDS011;6325;49.540;8.364;2023-09-12T03:08:28;7.55;;;6.95;;
12519;SDS011;6325;49.540;8.364;2023-09-12T03:10:57;7.87;;;7.17;;
12519;SDS011;6325;49.540;8.364;2023-09-12T03:13:26;7.97;;;7.28;;
12519;SDS011;6325;49.540;8.364;2023-09-12T03:15:53;7.80;;;7.10;;
12519;SDS011;6325;49.540;8.364;2023-09-12T03:18:20;7.45;;;6.85;;
12519;SDS011;6325;49.540;8.364;2023-09-12T03:20:47;7.82;;;7.13;;
12519;SDS011;6325;49.540;8.364;2023-09-12T03:23:15;7.45;;;6.85;;
12519;SDS011;6325;49.540;8.364;2023-09-12T03:25:42;7.78;;;7.07;;
12519;SDS011;6325;49.540;8.364;2023-09-12T03:28:11;8.27;;;7.38;;
12519;SDS011;6325;49.540;8.364;2023-09-12T03:30:38;7.85;;;7.15;;
12519;SDS011;6325;49.540;8.364;2023-09-12T03:33:05;7.80;;;7.10;;
12519;SDS011;6325;49.540;8.364;2023-09-12T03:35:32;8.05;;;7.25;;
12519;SDS011;6325;49.540;8.364;2023-09-12T03:38:00;7.78;;;7.07;;
12519;SDS011;6325;49.540;8.364;2023-09-12T03:40:27;7.85;;;7.15;;
12519;SDS011;6325;49.540;8.364;2023-09-12T03:42:55;7.80;;;7.10;;
12519;SDS011;6325;49.540;8.364;2023-09-12T03:45:24;7.78;;;7.00;;
12519;SDS011;6325;49.540;8.364;2023-09-12T03:47:51;7.85;;;7.15;;
12519;SDS011;6325;49.540;8.364;2023-09-12T03:50:18;7.80;;;7.10;;
12519;SDS011;6325;49.540;8.364;2023-09-12T03:52:45;8.10;;;7.43;;
12519;SDS011;6325;49.540;8.364;2023-09-12T03:55:12;7.43;;;6.82;;
12519;SDS011;6325;49.540;8.364;2023-09-12T03:57:39;8.13;;;7.40;;
12519;SDS011;6325;49.540;8.364;2023-09-12T04:00:07;7.70;;;7.00;;
12519;SDS011;6325;49.540;8.364;2023-09-12T04:02:36;7.93;;;7.18;;
12519;SDS011;6325;49.540;8.364;2023-09-12T04:05:03;7.82;;;7.13;;
12519;SDS011;6325;49.540;8.364;2023-09-12T04:07:30;8.30;;;7.50;;
12519;SDS011;6325;49.540;8.364;2023-09-12T04:09:57;7.70;;;7.10;;
12519;SDS011;6325;49.540;8.364;2023-09-12T04:12:24;8.00;;;7.25;;
12519;SDS011;6325;49.540;8.364;2023-09-12T04:14:52;7.93;;;7.23;;
12519;SDS011;6325;49.540;8.364;2023-09-12T04:17:20;7.60;;;6.97;;
12519;SDS011;6325;49.540;8.364;2023-09-12T04:19:48;8.23;;;7.43;;
12519;SDS011;6325;49.540;8.364;2023-09-12T04:22:15;8.15;;;7.32;;
12519;SDS011;6325;49.540;8.364;2023-09-12T04:24:43;8.60;;;7.85;;
12519;SDS011;6325;49.540;8.364;2023-09-12T04:27:10;9.18;;;8.38;;
12519;SDS011;6325;49.540;8.364;2023-09-12T04:29:37;10.07;;;9.13;;
12519;SDS011;6325;49.540;8.364;2023-09-12T04:32:04;9.53;;;8.67;;
12519;SDS011;6325;49.540;8.364;2023-09-12T04:34:31;9.68;;;8.70;;
12519;SDS011;6325;49.540;8.364;2023-09-12T04:37:00;9.25;;;8.45;;
12519;SDS011;6325;49.540;8.364;2023-09-12T04:39:27;9.45;;;8.55;;
12519;SDS011;6325;49.540;8.364;2023-09-12T04:41:55;9.85;;;8.95;;
12519;SDS011;6325;49.540;8.364;2023-09-12T04:44:22;8.93;;;8.15;;
12519;SDS011;6325;49.540;8.364;2023-09-12T04:46:49;8.85;;;8.10;;
12519;SDS011;6325;49.540;8.364;2023-09-12T04:49:16;8.15;;;7.45;;
12519;SDS011;6325;49.540;8.364;2023-09-12T04:51:43;8.52;;;7.72;;
12519;SDS011;6325;49.540;8.364;2023-09-12T04:54:11;8.93;;;8.13;;
12519;SDS011;6325;49.540;8.364;2023-09-12T04:56:39;9.90;;;9.00;;
12519;SDS011;6325;49.540;8.364;2023-09-12T04:59:06;11.07;;;10.07;;
12519;SDS011;6325;49.540;8.364;2023-09-12T05:01:33;11.50;;;10.50;;
12519;SDS011;6325;49.540;8.364;2023-09-12T05:04:00;13.13;;;12.00;;
12519;SDS011;6325;49.540;8.364;2023-09-12T05:06:28;12.50;;;11.40;;
12519;SDS011;6325;49.540;8.364;2023-09-12T05:08:55;11.93;;;10.88;;
12519;SDS011;6325;49.540;8.364;2023-09-12T05:11:23;12.07;;;11.05;;
12519;SDS011;6325;49.540;8.364;2023-09-12T05:13:50;12.27;;;11.05;;
12519;SDS011;6325;49.540;8.364;2023-09-12T05:16:18;11.63;;;10.43;;
12519;SDS011;6325;49.540;8.364;2023-09-12T05:18:45;11.40;;;10.30;;
12519;SDS011;6325;49.540;8.364;2023-09-12T05:21:14;11.82;;;10.70;;
12519;SDS011;6325;49.540;8.364;2023-09-12T05:23:41;11.95;;;10.73;;
12519;SDS011;6325;49.540;8.364;2023-09-12T05:26:08;11.90;;;10.70;;
12519;SDS011;6325;49.540;8.364;2023-09-12T05:28:38;12.45;;;11.15;;
12519;SDS011;6325;49.540;8.364;2023-09-12T05:31:05;12.50;;;11.20;;
12519;SDS011;6325;49.540;8.364;2023-09-12T05:33:32;12.15;;;10.95;;
12519;SDS011;6325;49.540;8.364;2023-09-12T05:36:00;11.73;;;10.55;;
12519;SDS011;6325;49.540;8.364;2023-09-12T05:38:27;12.93;;;11.57;;
12519;SDS011;6325;49.540;8.364;2023-09-12T05:40:54;12.85;;;11.75;;
12519;SDS011;6325;49.540;8.364;2023-09-12T05:43:22;12.55;;;11.45;;
12519;SDS011;6325;49.540;8.364;2023-09-12T05:45:51;12.95;;;11.85;;
12519;SDS011;6325;49.540;8.364;2023-09-12T05:48:18;13.45;;;12.15;;
12519;SDS011;6325;49.540;8.364;2023-09-12T05:50:45;12.52;;;11.43;;
12519;SDS011;6325;49.540;8.364;2023-09-12T05:53:13;12.73;;;11.63;;
12519;SDS011;6325;49.540;8.364;2023-09-12T05:55:40;12.30;;;11.20;;
12519;SDS011;6325;49.540;8.364;2023-09-12T05:58:07;11.77;;;10.77;;
12519;SDS011;6325;49.540;8.364;2023-09-12T06:00:34;11.98;;;10.98;;
12519;SDS011;6325;49.540;8.364;2023-09-12T06:03:03;11.93;;;10.82;;
12519;SDS011;6325;49.540;8.364;2023-09-12T06:05:30;11.23;;;10.23;;
12519;SDS011;6325;49.540;8.364;2023-09-12T06:07:57;10.63;;;9.63;;
12519;SDS011;6325;49.540;8.364;2023-09-12T06:10:25;11.35;;;10.25;;
12519;SDS011;6325;49.540;8.364;2023-09-12T06:12:52;10.70;;;9.73;;
12519;SDS011;6325;49.540;8.364;2023-09-12T06:15:19;10.40;;;9.50;;
12519;SDS011;6325;49.540;8.364;2023-09-12T06:17:46;10.35;;;9.45;;
12519;SDS011;6325;49.540;8.364;2023-09-12T06:20:14;10.93;;;9.93;;
12519;SDS011;6325;49.540;8.364;2023-09-12T06:22:41;9.82;;;8.93;;
12519;SDS011;6325;49.540;8.364;2023-09-12T06:25:09;10.23;;;9.27;;
12519;SDS011;6325;49.540;8.364;2023-09-12T06:27:36;9.43;;;8.63;;
12519;SDS011;6325;49.540;8.364;2023-09-12T06:30:03;9.40;;;8.60;;
12519;SDS011;6325;49.540;8.364;2023-09-12T06:32:30;9.27;;;8.48;;
12519;SDS011;6325;49.540;8.364;2023-09-12T06:34:58;9.80;;;8.80;;
12519;SDS011;6325;49.540;8.364;2023-09-12T06:37:26;10.52;;;9.50;;
12519;SDS011;6325;49.540;8.364;2023-09-12T06:39:53;9.82;;;8.98;;
12519;SDS011;6325;49.540;8.364;2023-09-12T06:42:20;9.52;;;8.68;;
12519;SDS011;6325;49.540;8.364;2023-09-12T06:44:47;10.35;;;9.38;;
12519;SDS011;6325;49.540;8.364;2023-09-12T06:47:14;11.13;;;10.02;;
12519;SDS011;6325;49.540;8.364;2023-09-12T06:49:41;12.80;;;10.82;;
12519;SDS011;6325;49.540;8.364;2023-09-12T06:52:09;11.30;;;10.20;;
12519;SDS011;6325;49.540;8.364;2023-09-12T06:54:37;11.18;;;10.07;;
12519;SDS011;6325;49.540;8.364;2023-09-12T06:57:04;11.02;;;9.98;;
12519;SDS011;6325;49.540;8.364;2023-09-12T07:02:04;10.43;;;9.52;;
12519;SDS011;6325;49.540;8.364;2023-09-12T07:04:32;11.13;;;9.80;;
12519;SDS011;6325;49.540;8.364;2023-09-12T07:06:59;9.73;;;8.82;;
12519;SDS011;6325;49.540;8.364;2023-09-12T07:09:26;8.88;;;8.05;;
12519;SDS011;6325;49.540;8.364;2023-09-12T07:11:55;8.68;;;7.88;;
12519;SDS011;6325;49.540;8.364;2023-09-12T07:14:22;8.40;;;7.65;;
12519;SDS011;6325;49.540;8.364;2023-09-12T07:16:50;8.43;;;7.68;;
12519;SDS011;6325;49.540;8.364;2023-09-12T07:19:17;9.25;;;7.90;;
12519;SDS011;6325;49.540;8.364;2023-09-12T07:21:44;7.68;;;6.95;;
12519;SDS011;6325;49.540;8.364;2023-09-12T07:24:12;6.95;;;6.35;;
12519;SDS011;6325;49.540;8.364;2023-09-12T07:26:39;6.72;;;6.13;;
12519;SDS011;6325;49.540;8.364;2023-09-12T07:29:07;7.07;;;6.32;;
12519;SDS011;6325;49.540;8.364;2023-09-12T07:31:34;6.65;;;5.97;;
12519;SDS011;6325;49.540;8.364;2023-09-12T07:34:01;6.72;;;5.97;;
12519;SDS011;6325;49.540;8.364;2023-09-12T07:36:29;6.50;;;5.90;;
12519;SDS011;6325;49.540;8.364;2023-09-12T07:38:56;6.70;;;5.93;;
12519;SDS011;6325;49.540;8.364;2023-09-12T07:41:23;7.40;;;6.13;;
12519;SDS011;6325;49.540;8.364;2023-09-12T07:43:50;6.40;;;5.80;;
12519;SDS011;6325;49.540;8.364;2023-09-12T07:46:18;6.85;;;6.15;;
12519;SDS011;6325;49.540;8.364;2023-09-12T07:48:46;7.28;;;6.25;;
12519;SDS011;6325;49.540;8.364;2023-09-12T07:51:13;6.50;;;5.90;;
12519;SDS011;6325;49.540;8.364;2023-09-12T07:53:39;6.60;;;5.32;;
12519;SDS011;6325;49.540;8.364;2023-09-12T07:56:07;6.35;;;5.70;;
12519;SDS011;6325;49.540;8.364;2023-09-12T07:58:36;6.38;;;5.70;;
12519;SDS011;6325;49.540;8.364;2023-09-12T08:01:05;6.45;;;5.80;;
12519;SDS011;6325;49.540;8.364;2023-09-12T08:03:34;6.70;;;6.00;;
12519;SDS011;6325;49.540;8.364;2023-09-12T08:06:02;6.47;;;5.80;;
12519;SDS011;6325;49.540;8.364;2023-09-12T08:08:29;6.57;;;6.05;;
12519;SDS011;6325;49.540;8.364;2023-09-12T08:10:57;6.45;;;5.80;;
12519;SDS011;6325;49.540;8.364;2023-09-12T08:13:25;6.40;;;5.80;;
12519;SDS011;6325;49.540;8.364;2023-09-12T08:15:52;8.20;;;6.63;;
12519;SDS011;6325;49.540;8.364;2023-09-12T08:18:19;7.45;;;6.70;;
12519;SDS011;6325;49.540;8.364;2023-09-12T08:20:48;7.03;;;6.30;;
12519;SDS011;6325;49.540;8.364;2023-09-12T08:23:15;6.90;;;5.78;;
12519;SDS011;6325;49.540;8.364;2023-09-12T08:25:42;7.10;;;6.00;;
12519;SDS011;6325;49.540;8.364;2023-09-12T08:28:09;7.72;;;6.50;;
12519;SDS011;6325;49.540;8.364;2023-09-12T08:30:36;7.82;;;6.30;;
12519;SDS011;6325;49.540;8.364;2023-09-12T08:33:04;6.13;;;5.53;;
12519;SDS011;6325;49.540;8.364;2023-09-12T08:35:31;7.72;;;6.32;;
12519;SDS011;6325;49.540;8.364;2023-09-12T08:38:00;7.10;;;5.88;;
12519;SDS011;6325;49.540;8.364;2023-09-12T08:40:27;6.90;;;5.70;;
12519;SDS011;6325;49.540;8.364;2023-09-12T08:42:56;7.82;;;6.38;;
12519;SDS011;6325;49.540;8.364;2023-09-12T08:45:24;6.20;;;5.65;;
12519;SDS011;6325;49.540;8.364;2023-09-12T08:47:52;5.68;;;5.18;;
12519;SDS011;6325;49.540;8.364;2023-09-12T08:50:20;6.40;;;5.80;;
12519;SDS011;6325;49.540;8.364;2023-09-12T08:52:48;6.10;;;5.38;;
12519;SDS011;6325;49.540;8.364;2023-09-12T08:55:17;7.85;;;6.18;;
12519;SDS011;6325;49.540;8.364;2023-09-12T08:57:44;5.78;;;5.00;;
12519;SDS011;6325;49.540;8.364;2023-09-12T09:00:13;5.63;;;5.13;;
12519;SDS011;6325;49.540;8.364;2023-09-12T09:02:41;5.70;;;5.20;;
12519;SDS011;6325;49.540;8.364;2023-09-12T09:05:09;5.55;;;5.05;;
12519;SDS011;6325;49.540;8.364;2023-09-12T09:07:37;6.40;;;5.32;;
12519;SDS011;6325;49.540;8.364;2023-09-12T09:10:05;5.68;;;5.18;;
12519;SDS011;6325;49.540;8.364;2023-09-12T09:12:34;5.82;;;5.32;;
12519;SDS011;6325;49.540;8.364;2023-09-12T09:17:44;5.95;;;5.20;;
12519;SDS011;6325;49.540;8.364;2023-09-12T09:20:12;5.30;;;4.90;;
12519;SDS011;6325;49.540;8.364;2023-09-12T09:22:55;6.75;;;4.97;;
12519;SDS011;6325;49.540;8.364;2023-09-12T09:25:22;5.45;;;4.95;;
12519;SDS011;6325;49.540;8.364;2023-09-12T09:27:51;5.78;;;5.20;;
12519;SDS011;6325;49.540;8.364;2023-09-12T09:30:18;5.20;;;4.75;;
12519;SDS011;6325;49.540;8.364;2023-09-12T09:32:45;5.25;;;4.78;;
12519;SDS011;6325;49.540;8.364;2023-09-12T09:35:13;5.43;;;4.83;;
12519;SDS011;6325;49.540;8.364;2023-09-12T09:37:41;5.22;;;4.72;;
12519;SDS011;6325;49.540;8.364;2023-09-12T09:40:08;5.75;;;5.10;;
12519;SDS011;6325;49.540;8.364;2023-09-12T09:42:36;6.50;;;5.07;;
12519;SDS011;6325;49.540;8.364;2023-09-12T09:45:05;6.30;;;5.10;;
12519;SDS011;6325;49.540;8.364;2023-09-12T09:47:33;6.32;;;4.93;;
12519;SDS011;6325;49.540;8.364;2023-09-12T09:50:00;5.35;;;4.50;;
12519;SDS011;6325;49.540;8.364;2023-09-12T09:52:27;5.53;;;5.03;;
12519;SDS011;6325;49.540;8.364;2023-09-12T09:54:54;5.70;;;5.20;;
12519;SDS011;6325;49.540;8.364;2023-09-12T09:57:21;6.13;;;5.23;;
12519;SDS011;6325;49.540;8.364;2023-09-12T09:59:52;5.30;;;4.80;;
12519;SDS011;6325;49.540;8.364;2023-09-12T10:02:22;5.18;;;4.70;;
12519;SDS011;6325;49.540;8.364;2023-09-12T10:04:52;5.40;;;4.90;;
12519;SDS011;6325;49.540;8.364;2023-09-12T10:07:20;5.82;;;5.22;;
12519;SDS011;6325;49.540;8.364;2023-09-12T10:09:48;6.03;;;5.50;;
12519;SDS011;6325;49.540;8.364;2023-09-12T10:12:15;5.70;;;5.20;;
12519;SDS011;6325;49.540;8.364;2023-09-12T10:14:43;5.70;;;5.20;;
12519;SDS011;6325;49.540;8.364;2023-09-12T10:17:10;6.45;;;5.68;;
12519;SDS011;6325;49.540;8.364;2023-09-12T10:19:41;6.20;;;5.60;;
12519;SDS011;6325;49.540;8.364;2023-09-12T10:22:12;5.43;;;4.93;;
12519;SDS011;6325;49.540;8.364;2023-09-12T10:24:40;6.20;;;5.65;;
12519;SDS011;6325;49.540;8.364;2023-09-12T10:27:08;5.70;;;5.20;;
12519;SDS011;6325;49.540;8.364;2023-09-12T10:29:36;6.53;;;5.38;;
12519;SDS011;6325;49.540;8.364;2023-09-12T10:32:03;6.22;;;5.63;;
12519;SDS011;6325;49.540;8.364;2023-09-12T10:34:32;5.72;;;5.22;;
12519;SDS011;6325;49.540;8.364;2023-09-12T10:37:00;5.80;;;5.20;;
12519;SDS011;6325;49.540;8.364;2023-09-12T10:39:31;6.10;;;5.50;;
12519;SDS011;6325;49.540;8.364;2023-09-12T10:41:58;5.60;;;5.10;;
12519;SDS011;6325;49.540;8.364;2023-09-12T10:44:26;5.93;;;5.50;;
12519;SDS011;6325;49.540;8.364;2023-09-12T10:46:53;6.00;;;5.40;;
12519;SDS011;6325;49.540;8.364;2023-09-12T10:49:20;5.65;;;5.22;;
12519;SDS011;6325;49.540;8.364;2023-09-12T10:51:48;6.00;;;5.50;;
12519;SDS011;6325;49.540;8.364;2023-09-12T10:54:25;5.90;;;5.30;;
12519;SDS011;6325;49.540;8.364;2023-09-12T10:57:01;6.55;;;5.85;;
12519;SDS011;6325;49.540;8.364;2023-09-12T10:59:29;7.07;;;5.70;;
12519;SDS011;6325;49.540;8.364;2023-09-12T11:04:42;5.90;;;5.40;;
12519;SDS011;6325;49.540;8.364;2023-09-12T11:12:38;5.75;;;5.18;;
12519;SDS011;6325;49.540;8.364;2023-09-12T11:15:06;5.50;;;5.10;;
12519;SDS011;6325;49.540;8.364;2023-09-12T11:17:37;6.30;;;5.70;;
12519;SDS011;6325;49.540;8.364;2023-09-12T11:20:04;5.25;;;4.85;;
12519;SDS011;6325;49.540;8.364;2023-09-12T11:22:35;5.55;;;5.05;;
12519;SDS011;6325;49.540;8.364;2023-09-12T11:25:04;5.55;;;5.05;;
12519;SDS011;6325;49.540;8.364;2023-09-12T11:27:32;5.00;;;4.70;;
12519;SDS011;6325;49.540;8.364;2023-09-12T11:30:04;5.80;;;5.30;;
12519;SDS011;6325;49.540;8.364;2023-09-12T11:32:32;6.03;;;5.50;;
12519;SDS011;6325;49.540;8.364;2023-09-12T11:35:04;5.28;;;4.88;;
12519;SDS011;6325;49.540;8.364;2023-09-12T11:37:32;5.13;;;4.72;;
12519;SDS011;6325;49.540;8.364;2023-09-12T11:40:02;5.63;;;5.13;;
12519;SDS011;6325;49.540;8.364;2023-09-12T11:42:29;5.63;;;5.10;;
12519;SDS011;6325;49.540;8.364;2023-09-12T11:44:57;5.47;;;5.07;;
12519;SDS011;6325;49.540;8.364;2023-09-12T11:47:26;5.25;;;4.85;;
12519;SDS011;6325;49.540;8.364;2023-09-12T11:49:53;5.10;;;4.70;;
12519;SDS011;6325;49.540;8.364;2023-09-12T11:52:20;5.55;;;5.05;;
12519;SDS011;6325;49.540;8.364;2023-09-12T11:54:47;5.43;;;4.93;;
12519;SDS011;6325;49.540;8.364;2023-09-12T11:57:14;5.20;;;4.80;;
12519;SDS011;6325;49.540;8.364;2023-09-12T11:59:42;5.88;;;5.35;;
12519;SDS011;6325;49.540;8.364;2023-09-12T12:02:10;5.63;;;5.10;;
12519;SDS011;6325;49.540;8.364;2023-09-12T12:04:39;5.38;;;4.88;;
12519;SDS011;6325;49.540;8.364;2023-09-12T12:07:06;5.47;;;5.00;;
12519;SDS011;6325;49.540;8.364;2023-09-12T12:09:34;5.53;;;5.03;;
12519;SDS011;6325;49.540;8.364;2023-09-12T12:12:07;5.90;;;5.40;;
12519;SDS011;6325;49.540;8.364;2023-09-12T12:14:35;5.30;;;4.80;;
12519;SDS011;6325;49.540;8.364;2023-09-12T12:17:06;5.60;;;5.10;;
12519;SDS011;6325;49.540;8.364;2023-09-12T12:19:34;5.38;;;4.97;;
12519;SDS011;6325;49.540;8.364;2023-09-12T12:22:03;6.22;;;5.28;;
12519;SDS011;6325;49.540;8.364;2023-09-12T12:24:39;5.63;;;5.13;;
12519;SDS011;6325;49.540;8.364;2023-09-12T12:27:06;5.40;;;5.00;;
12519;SDS011;6325;49.540;8.364;2023-09-12T12:29:35;5.32;;;4.90;;
12519;SDS011;6325;49.540;8.364;2023-09-12T12:32:02;5.43;;;4.95;;
12519;SDS011;6325;49.540;8.364;2023-09-12T12:34:33;5.55;;;5.05;;
12519;SDS011;6325;49.540;8.364;2023-09-12T12:37:00;5.03;;;4.63;;
12519;SDS011;6325;49.540;8.364;2023-09-12T12:39:29;5.50;;;5.00;;
12519;SDS011;6325;49.540;8.364;2023-09-12T12:41:56;5.30;;;4.90;;
12519;SDS011;6325;49.540;8.364;2023-09-12T12:44:31;5.40;;;4.90;;
12519;SDS011;6325;49.540;8.364;2023-09-12T12:47:00;5.53;;;5.03;;
12519;SDS011;6325;49.540;8.364;2023-09-12T12:49:30;5.47;;;5.03;;
12519;SDS011;6325;49.540;8.364;2023-09-12T12:52:02;5.55;;;5.13;;
12519;SDS011;6325;49.540;8.364;2023-09-12T12:54:32;5.07;;;4.68;;
12519;SDS011;6325;49.540;8.364;2023-09-12T12:56:59;5.28;;;4.88;;
12519;SDS011;6325;49.540;8.364;2023-09-12T13:08:10;5.50;;;5.10;;
12519;SDS011;6325;49.540;8.364;2023-09-12T13:10:39;5.45;;;5.05;;
12519;SDS011;6325;49.540;8.364;2023-09-12T13:13:07;5.63;;;5.22;;
12519;SDS011;6325;49.540;8.364;2023-09-12T13:15:34;5.78;;;5.25;;
12519;SDS011;6325;49.540;8.364;2023-09-12T13:18:01;5.60;;;5.20;;
12519;SDS011;6325;49.540;8.364;2023-09-12T13:20:29;6.10;;;5.50;;
12519;SDS011;6325;49.540;8.364;2023-09-12T13:22:56;5.50;;;5.10;;
12519;SDS011;6325;49.540;8.364;2023-09-12T13:25:23;5.90;;;5.50;;
12519;SDS011;6325;49.540;8.364;2023-09-12T13:27:52;5.47;;;5.07;;
12519;SDS011;6325;49.540;8.364;2023-09-12T13:30:19;5.50;;;5.05;;
12519;SDS011;6325;49.540;8.364;2023-09-12T13:32:46;5.03;;;4.70;;
12519;SDS011;6325;49.540;8.364;2023-09-12T13:35:13;6.25;;;5.65;;
12519;SDS011;6325;49.540;8.364;2023-09-12T13:37:40;5.78;;;5.28;;
12519;SDS011;6325;49.540;8.364;2023-09-12T13:40:08;5.70;;;5.20;;
12519;SDS011;6325;49.540;8.364;2023-09-12T13:42:35;5.40;;;4.90;;
12519;SDS011;6325;49.540;8.364;2023-09-12T13:45:04;5.80;;;5.30;;
12519;SDS011;6325;49.540;8.364;2023-09-12T13:47:31;5.30;;;4.90;;
12519;SDS011;6325;49.540;8.364;2023-09-12T13:49:58;5.40;;;4.90;;
12519;SDS011;6325;49.540;8.364;2023-09-12T13:52:25;5.78;;;5.35;;
12519;SDS011;6325;49.540;8.364;2023-09-12T13:54:53;5.20;;;4.90;;
12519;SDS011;6325;49.540;8.364;2023-09-12T13:57:20;5.55;;;5.10;;
12519;SDS011;6325;49.540;8.364;2023-09-12T13:59:47;5.30;;;4.90;;
12519;SDS011;6325;49.540;8.364;2023-09-12T14:02:15;5.30;;;4.90;;
12519;SDS011;6325;49.540;8.364;2023-09-12T14:04:43;5.38;;;5.00;;
12519;SDS011;6325;49.540;8.364;2023-09-12T14:07:10;5.33;;;4.93;;
12519;SDS011;6325;49.540;8.364;2023-09-12T14:09:38;5.63;;;5.18;;
12519;SDS011;6325;49.540;8.364;2023-09-12T14:12:06;4.95;;;4.65;;
12519;SDS011;6325;49.540;8.364;2023-09-12T14:14:34;5.47;;;5.07;;
12519;SDS011;6325;49.540;8.364;2023-09-12T14:17:01;5.22;;;4.72;;
12519;SDS011;6325;49.540;8.364;2023-09-12T14:19:29;5.30;;;4.90;;
12519;SDS011;6325;49.540;8.364;2023-09-12T14:21:56;5.47;;;5.07;;
12519;SDS011;6325;49.540;8.364;2023-09-12T14:24:23;5.20;;;4.80;;
12519;SDS011;6325;49.540;8.364;2023-09-12T14:26:50;4.93;;;4.63;;
12519;SDS011;6325;49.540;8.364;2023-09-12T14:29:17;5.20;;;4.90;;
12519;SDS011;6325;49.540;8.364;2023-09-12T14:31:45;5.70;;;5.20;;
12519;SDS011;6325;49.540;8.364;2023-09-12T14:34:17;5.35;;;4.95;;
12519;SDS011;6325;49.540;8.364;2023-09-12T14:36:46;5.60;;;5.20;;
12519;SDS011;6325;49.540;8.364;2023-09-12T14:39:13;5.60;;;5.10;;
12519;SDS011;6325;49.540;8.364;2023-09-12T14:41:40;5.28;;;4.88;;
12519;SDS011;6325;49.540;8.364;2023-09-12T14:44:08;5.13;;;4.63;;
12519;SDS011;6325;49.540;8.364;2023-09-12T14:46:36;5.60;;;5.20;;
12519;SDS011;6325;49.540;8.364;2023-09-12T14:49:03;5.43;;;5.00;;
12519;SDS011;6325;49.540;8.364;2023-09-12T14:51:30;5.10;;;4.70;;
12519;SDS011;6325;49.540;8.364;2023-09-12T14:53:59;5.13;;;4.72;;
12519;SDS011;6325;49.540;8.364;2023-09-12T14:56:26;5.07;;;4.78;;
12519;SDS011;6325;49.540;8.364;2023-09-12T14:58:53;5.13;;;4.72;;
12519;SDS011;6325;49.540;8.364;2023-09-12T15:01:20;5.35;;;4.85;;
12519;SDS011;6325;49.540;8.364;2023-09-12T15:03:48;5.13;;;4.80;;
12519;SDS011;6325;49.540;8.364;2023-09-12T15:06:16;5.70;;;5.20;;
12519;SDS011;6325;49.540;8.364;2023-09-12T15:08:43;5.32;;;4.93;;
12519;SDS011;6325;49.540;8.364;2023-09-12T15:11:11;5.18;;;4.78;;
12519;SDS011;6325;49.540;8.364;2023-09-12T15:13:38;5.70;;;5.30;;
12519;SDS011;6325;49.540;8.364;2023-09-12T15:16:06;5.18;;;4.85;;
12519;SDS011;6325;49.540;8.364;2023-09-12T15:18:33;5.60;;;5.20;;
12519;SDS011;6325;49.540;8.364;2023-09-12T15:21:00;5.65;;;5.25;;
12519;SDS011;6325;49.540;8.364;2023-09-12T15:23:27;5.50;;;5.00;;